sensor_id;sensor_type;location;lat;lon;timestamp;temperature;humidity
81031;SHT31;70513;51.984;5.648;2024-03-22T00:00:43;12.5;80.8
81031;SHT31;70513;51.984;5.648;2024-03-22T00:03:12;12.5;80.9
81031;SHT31;70513;51.984;5.648;2024-03-22T00:05:40;12.5;81.0
81031;SHT31;70513;51.984;5.648;2024-03-22T00:08:08;12.5;81.1
81031;SHT31;70513;51.984;5.648;2024-03-22T00:10:37;12.5;81.3
81031;SHT31;70513;51.984;5.648;2024-03-22T00:13:05;12.5;81.3
81031;SHT31;70513;51.984;5.648;2024-03-22T00:15:34;12.5;81.4
81031;SHT31;70513;51.984;5.648;2024-03-22T00:18:03;12.5;81.6
81031;SHT31;70513;51.984;5.648;2024-03-22T00:20:32;12.5;81.6
81031;SHT31;70513;51.984;5.648;2024-03-22T00:23:01;12.5;81.7
81031;SHT31;70513;51.984;5.648;2024-03-22T00:25:31;12.5;81.8
81031;SHT31;70513;51.984;5.648;2024-03-22T00:28:00;12.6;81.9
81031;SHT31;70513;51.984;5.648;2024-03-22T00:30:28;12.6;82.0
81031;SHT31;70513;51.984;5.648;2024-03-22T00:32:57;12.6;82.0
81031;SHT31;70513;51.984;5.648;2024-03-22T00:35:25;12.6;82.0
81031;SHT31;70513;51.984;5.648;2024-03-22T00:37:54;12.7;82.1
81031;SHT31;70513;51.984;5.648;2024-03-22T00:40:23;12.7;82.1
81031;SHT31;70513;51.984;5.648;2024-03-22T00:42:51;12.7;82.2
81031;SHT31;70513;51.984;5.648;2024-03-22T00:45:19;12.7;82.2
81031;SHT31;70513;51.984;5.648;2024-03-22T00:47:48;12.7;82.3
81031;SHT31;70513;51.984;5.648;2024-03-22T00:50:17;12.8;82.3
81031;SHT31;70513;51.984;5.648;2024-03-22T00:52:45;12.8;82.3
81031;SHT31;70513;51.984;5.648;2024-03-22T00:55:13;12.8;82.2
81031;SHT31;70513;51.984;5.648;2024-03-22T00:57:42;12.8;82.1
81031;SHT31;70513;51.984;5.648;2024-03-22T01:00:11;12.8;82.1
81031;SHT31;70513;51.984;5.648;2024-03-22T01:02:41;12.8;82.1
81031;SHT31;70513;51.984;5.648;2024-03-22T01:05:09;12.9;82.1
81031;SHT31;70513;51.984;5.648;2024-03-22T01:07:38;12.9;81.9
81031;SHT31;70513;51.984;5.648;2024-03-22T01:10:07;12.9;81.9
81031;SHT31;70513;51.984;5.648;2024-03-22T01:12:35;12.9;81.8
81031;SHT31;70513;51.984;5.648;2024-03-22T01:15:06;12.9;81.7
81031;SHT31;70513;51.984;5.648;2024-03-22T01:17:35;12.9;81.7
81031;SHT31;70513;51.984;5.648;2024-03-22T01:20:05;12.9;81.8
81031;SHT31;70513;51.984;5.648;2024-03-22T01:22:34;12.9;81.8
81031;SHT31;70513;51.984;5.648;2024-03-22T01:25:04;12.9;81.8
81031;SHT31;70513;51.984;5.648;2024-03-22T01:27:34;12.9;81.9
81031;SHT31;70513;51.984;5.648;2024-03-22T01:30:03;12.9;81.8
81031;SHT31;70513;51.984;5.648;2024-03-22T01:32:32;12.9;81.8
81031;SHT31;70513;51.984;5.648;2024-03-22T01:35:00;12.9;81.8
81031;SHT31;70513;51.984;5.648;2024-03-22T01:37:31;12.9;81.8
81031;SHT31;70513;51.984;5.648;2024-03-22T01:40:00;12.9;81.9
81031;SHT31;70513;51.984;5.648;2024-03-22T01:42:29;12.9;81.8
81031;SHT31;70513;51.984;5.648;2024-03-22T01:44:57;12.9;81.8
81031;SHT31;70513;51.984;5.648;2024-03-22T01:47:26;12.9;81.8
81031;SHT31;70513;51.984;5.648;2024-03-22T01:49:55;12.9;81.8
81031;SHT31;70513;51.984;5.648;2024-03-22T01:52:24;12.9;81.8
81031;SHT31;70513;51.984;5.648;2024-03-22T01:54:53;12.9;81.7
81031;SHT31;70513;51.984;5.648;2024-03-22T01:57:23;12.9;81.7
81031;SHT31;70513;51.984;5.648;2024-03-22T01:59:54;12.9;81.7
81031;SHT31;70513;51.984;5.648;2024-03-22T02:02:24;12.9;81.7
81031;SHT31;70513;51.984;5.648;2024-03-22T02:04:52;12.9;81.8
81031;SHT31;70513;51.984;5.648;2024-03-22T02:07:21;12.9;81.8
81031;SHT31;70513;51.984;5.648;2024-03-22T02:09:50;12.9;81.8
81031;SHT31;70513;51.984;5.648;2024-03-22T02:12:19;12.9;81.7
81031;SHT31;70513;51.984;5.648;2024-03-22T02:14:50;12.9;81.7
81031;SHT31;70513;51.984;5.648;2024-03-22T02:17:18;12.9;81.8
81031;SHT31;70513;51.984;5.648;2024-03-22T02:19:46;12.9;81.9
81031;SHT31;70513;51.984;5.648;2024-03-22T02:22:15;12.9;81.8
81031;SHT31;70513;51.984;5.648;2024-03-22T02:24:43;12.9;81.8
81031;SHT31;70513;51.984;5.648;2024-03-22T02:27:12;12.9;81.7
81031;SHT31;70513;51.984;5.648;2024-03-22T02:29:40;12.9;81.7
81031;SHT31;70513;51.984;5.648;2024-03-22T02:32:09;12.9;81.6
81031;SHT31;70513;51.984;5.648;2024-03-22T02:34:40;12.9;81.6
81031;SHT31;70513;51.984;5.648;2024-03-22T02:37:08;12.9;81.5
81031;SHT31;70513;51.984;5.648;2024-03-22T02:39:37;13.0;81.5
81031;SHT31;70513;51.984;5.648;2024-03-22T02:42:06;13.0;81.4
81031;SHT31;70513;51.984;5.648;2024-03-22T02:44:35;13.0;81.4
81031;SHT31;70513;51.984;5.648;2024-03-22T02:47:08;13.0;81.3
81031;SHT31;70513;51.984;5.648;2024-03-22T02:49:38;13.0;81.3
81031;SHT31;70513;51.984;5.648;2024-03-22T02:52:07;13.1;81.2
81031;SHT31;70513;51.984;5.648;2024-03-22T02:54:36;13.1;80.9
81031;SHT31;70513;51.984;5.648;2024-03-22T02:57:05;13.1;80.8
81031;SHT31;70513;51.984;5.648;2024-03-22T02:59:33;13.1;80.7
81031;SHT31;70513;51.984;5.648;2024-03-22T03:02:01;13.1;80.6
81031;SHT31;70513;51.984;5.648;2024-03-22T03:04:30;13.1;80.6
81031;SHT31;70513;51.984;5.648;2024-03-22T03:06:58;13.1;80.6
81031;SHT31;70513;51.984;5.648;2024-03-22T03:09:27;13.0;80.6
81031;SHT31;70513;51.984;5.648;2024-03-22T03:11:55;13.0;80.6
81031;SHT31;70513;51.984;5.648;2024-03-22T03:14:23;13.0;80.6
81031;SHT31;70513;51.984;5.648;2024-03-22T03:16:52;13.0;80.6
81031;SHT31;70513;51.984;5.648;2024-03-22T03:19:22;12.9;80.7
81031;SHT31;70513;51.984;5.648;2024-03-22T03:21:51;12.9;80.7
81031;SHT31;70513;51.984;5.648;2024-03-22T03:24:19;12.9;80.7
81031;SHT31;70513;51.984;5.648;2024-03-22T03:26:48;12.9;80.7
81031;SHT31;70513;51.984;5.648;2024-03-22T03:29:16;12.9;80.6
81031;SHT31;70513;51.984;5.648;2024-03-22T03:31:45;12.9;80.6
81031;SHT31;70513;51.984;5.648;2024-03-22T03:34:16;12.9;80.6
81031;SHT31;70513;51.984;5.648;2024-03-22T03:36:47;12.9;80.7
81031;SHT31;70513;51.984;5.648;2024-03-22T03:39:15;12.9;80.6
81031;SHT31;70513;51.984;5.648;2024-03-22T03:41:46;12.9;80.5
81031;SHT31;70513;51.984;5.648;2024-03-22T03:44:16;12.8;80.6
81031;SHT31;70513;51.984;5.648;2024-03-22T03:46:45;12.8;80.6
81031;SHT31;70513;51.984;5.648;2024-03-22T03:49:13;12.8;80.7
81031;SHT31;70513;51.984;5.648;2024-03-22T03:51:41;12.8;80.8
81031;SHT31;70513;51.984;5.648;2024-03-22T03:54:10;12.8;80.7
81031;SHT31;70513;51.984;5.648;2024-03-22T03:56:38;12.8;80.8
81031;SHT31;70513;51.984;5.648;2024-03-22T03:59:07;12.8;80.9
81031;SHT31;70513;51.984;5.648;2024-03-22T04:01:35;12.8;80.9
81031;SHT31;70513;51.984;5.648;2024-03-22T04:04:04;12.8;81.0
81031;SHT31;70513;51.984;5.648;2024-03-22T04:06:32;12.8;80.9
81031;SHT31;70513;51.984;5.648;2024-03-22T04:09:00;12.8;80.8
81031;SHT31;70513;51.984;5.648;2024-03-22T04:11:29;12.8;80.9
81031;SHT31;70513;51.984;5.648;2024-03-22T04:13:57;12.7;80.8
81031;SHT31;70513;51.984;5.648;2024-03-22T04:16:26;12.7;80.6
81031;SHT31;70513;51.984;5.648;2024-03-22T04:18:55;12.7;80.8
81031;SHT31;70513;51.984;5.648;2024-03-22T04:21:23;12.7;80.9
81031;SHT31;70513;51.984;5.648;2024-03-22T04:23:52;12.6;80.7
81031;SHT31;70513;51.984;5.648;2024-03-22T04:26:20;12.6;80.4
81031;SHT31;70513;51.984;5.648;2024-03-22T04:28:49;12.6;80.5
81031;SHT31;70513;51.984;5.648;2024-03-22T04:31:19;12.6;80.5
81031;SHT31;70513;51.984;5.648;2024-03-22T04:33:48;12.6;80.0
81031;SHT31;70513;51.984;5.648;2024-03-22T04:36:19;12.6;79.9
81031;SHT31;70513;51.984;5.648;2024-03-22T04:38:48;12.5;79.9
81031;SHT31;70513;51.984;5.648;2024-03-22T04:41:17;12.5;79.3
81031;SHT31;70513;51.984;5.648;2024-03-22T04:43:45;12.5;78.5
81031;SHT31;70513;51.984;5.648;2024-03-22T04:46:14;12.4;78.8
81031;SHT31;70513;51.984;5.648;2024-03-22T04:48:42;12.4;79.0
81031;SHT31;70513;51.984;5.648;2024-03-22T04:51:13;12.4;78.8
81031;SHT31;70513;51.984;5.648;2024-03-22T04:53:41;12.4;78.8
81031;SHT31;70513;51.984;5.648;2024-03-22T04:56:10;12.4;79.0
81031;SHT31;70513;51.984;5.648;2024-03-22T04:58:39;12.3;78.8
81031;SHT31;70513;51.984;5.648;2024-03-22T05:01:07;12.3;78.8
81031;SHT31;70513;51.984;5.648;2024-03-22T05:03:38;12.3;78.7
81031;SHT31;70513;51.984;5.648;2024-03-22T05:06:07;12.3;78.7
81031;SHT31;70513;51.984;5.648;2024-03-22T05:08:36;12.2;78.7
81031;SHT31;70513;51.984;5.648;2024-03-22T05:11:04;12.2;78.6
81031;SHT31;70513;51.984;5.648;2024-03-22T05:13:34;12.2;78.5
81031;SHT31;70513;51.984;5.648;2024-03-22T05:16:02;12.2;78.6
81031;SHT31;70513;51.984;5.648;2024-03-22T05:18:31;12.1;78.6
81031;SHT31;70513;51.984;5.648;2024-03-22T05:20:59;12.1;78.8
81031;SHT31;70513;51.984;5.648;2024-03-22T05:23:27;12.1;78.7
81031;SHT31;70513;51.984;5.648;2024-03-22T05:25:56;12.1;78.8
81031;SHT31;70513;51.984;5.648;2024-03-22T05:28:26;12.1;78.9
81031;SHT31;70513;51.984;5.648;2024-03-22T05:30:56;12.1;79.1
81031;SHT31;70513;51.984;5.648;2024-03-22T05:33:24;12.0;79.1
81031;SHT31;70513;51.984;5.648;2024-03-22T05:35:53;12.0;79.2
81031;SHT31;70513;51.984;5.648;2024-03-22T05:38:22;12.0;79.4
81031;SHT31;70513;51.984;5.648;2024-03-22T05:40:50;12.0;79.5
81031;SHT31;70513;51.984;5.648;2024-03-22T05:43:19;12.0;79.3
81031;SHT31;70513;51.984;5.648;2024-03-22T05:45:47;12.0;79.5
81031;SHT31;70513;51.984;5.648;2024-03-22T05:48:15;12.0;79.7
81031;SHT31;70513;51.984;5.648;2024-03-22T05:50:44;12.0;79.5
81031;SHT31;70513;51.984;5.648;2024-03-22T05:53:12;12.0;79.5
81031;SHT31;70513;51.984;5.648;2024-03-22T05:55:42;12.0;79.4
81031;SHT31;70513;51.984;5.648;2024-03-22T05:58:11;12.0;79.3
81031;SHT31;70513;51.984;5.648;2024-03-22T06:00:39;12.0;79.5
81031;SHT31;70513;51.984;5.648;2024-03-22T06:03:08;12.0;79.3
81031;SHT31;70513;51.984;5.648;2024-03-22T06:05:38;12.0;79.1
81031;SHT31;70513;51.984;5.648;2024-03-22T06:08:08;12.0;79.2
81031;SHT31;70513;51.984;5.648;2024-03-22T06:10:36;12.0;79.2
81031;SHT31;70513;51.984;5.648;2024-03-22T06:13:05;11.9;79.3
81031;SHT31;70513;51.984;5.648;2024-03-22T06:15:34;11.9;79.4
81031;SHT31;70513;51.984;5.648;2024-03-22T06:18:02;11.9;79.6
81031;SHT31;70513;51.984;5.648;2024-03-22T06:20:31;11.9;79.7
81031;SHT31;70513;51.984;5.648;2024-03-22T06:22:59;11.9;79.2
81031;SHT31;70513;51.984;5.648;2024-03-22T06:25:28;11.9;79.4
81031;SHT31;70513;51.984;5.648;2024-03-22T06:27:56;11.9;79.3
81031;SHT31;70513;51.984;5.648;2024-03-22T06:30:25;12.0;79.2
81031;SHT31;70513;51.984;5.648;2024-03-22T06:32:53;12.0;79.1
81031;SHT31;70513;51.984;5.648;2024-03-22T06:35:23;12.0;78.9
81031;SHT31;70513;51.984;5.648;2024-03-22T06:37:51;12.0;79.0
81031;SHT31;70513;51.984;5.648;2024-03-22T06:40:20;12.0;79.0
81031;SHT31;70513;51.984;5.648;2024-03-22T06:42:48;12.0;79.1
81031;SHT31;70513;51.984;5.648;2024-03-22T06:45:17;12.0;78.8
81031;SHT31;70513;51.984;5.648;2024-03-22T06:47:45;12.0;79.1
81031;SHT31;70513;51.984;5.648;2024-03-22T06:50:14;12.0;79.0
81031;SHT31;70513;51.984;5.648;2024-03-22T06:52:44;12.0;79.1
81031;SHT31;70513;51.984;5.648;2024-03-22T06:55:14;12.0;78.9
81031;SHT31;70513;51.984;5.648;2024-03-22T06:57:43;12.0;78.8
81031;SHT31;70513;51.984;5.648;2024-03-22T07:00:13;12.0;79.0
81031;SHT31;70513;51.984;5.648;2024-03-22T07:02:43;12.1;78.8
81031;SHT31;70513;51.984;5.648;2024-03-22T07:05:12;12.1;78.8
81031;SHT31;70513;51.984;5.648;2024-03-22T07:07:40;12.1;78.6
81031;SHT31;70513;51.984;5.648;2024-03-22T07:10:09;12.1;78.7
81031;SHT31;70513;51.984;5.648;2024-03-22T07:12:38;12.1;78.8
81031;SHT31;70513;51.984;5.648;2024-03-22T07:15:07;12.1;78.9
81031;SHT31;70513;51.984;5.648;2024-03-22T07:17:36;12.1;79.1
81031;SHT31;70513;51.984;5.648;2024-03-22T07:20:06;12.1;78.9
81031;SHT31;70513;51.984;5.648;2024-03-22T07:22:35;12.1;78.8
81031;SHT31;70513;51.984;5.648;2024-03-22T07:25:04;12.1;78.9
81031;SHT31;70513;51.984;5.648;2024-03-22T07:27:34;12.1;79.0
81031;SHT31;70513;51.984;5.648;2024-03-22T07:30:03;12.2;79.1
81031;SHT31;70513;51.984;5.648;2024-03-22T07:32:32;12.2;78.6
81031;SHT31;70513;51.984;5.648;2024-03-22T07:35:02;12.2;78.7
81031;SHT31;70513;51.984;5.648;2024-03-22T07:37:30;12.2;78.2
81031;SHT31;70513;51.984;5.648;2024-03-22T07:39:59;12.2;78.2
81031;SHT31;70513;51.984;5.648;2024-03-22T07:42:27;12.2;77.9
81031;SHT31;70513;51.984;5.648;2024-03-22T07:44:57;12.2;78.1
81031;SHT31;70513;51.984;5.648;2024-03-22T07:47:25;12.2;78.3
81031;SHT31;70513;51.984;5.648;2024-03-22T07:49:54;12.2;78.1
81031;SHT31;70513;51.984;5.648;2024-03-22T07:52:22;12.2;77.8
81031;SHT31;70513;51.984;5.648;2024-03-22T07:54:51;12.2;78.0
81031;SHT31;70513;51.984;5.648;2024-03-22T07:57:20;12.2;77.8
81031;SHT31;70513;51.984;5.648;2024-03-22T07:59:49;12.2;77.6
81031;SHT31;70513;51.984;5.648;2024-03-22T08:02:18;12.2;77.8
81031;SHT31;70513;51.984;5.648;2024-03-22T08:04:46;12.2;77.8
81031;SHT31;70513;51.984;5.648;2024-03-22T08:07:15;12.2;78.2
81031;SHT31;70513;51.984;5.648;2024-03-22T08:09:44;12.2;78.4
81031;SHT31;70513;51.984;5.648;2024-03-22T08:12:12;12.2;78.0
81031;SHT31;70513;51.984;5.648;2024-03-22T08:14:41;12.2;78.2
81031;SHT31;70513;51.984;5.648;2024-03-22T08:17:11;12.3;78.4
81031;SHT31;70513;51.984;5.648;2024-03-22T08:19:41;12.3;78.1
81031;SHT31;70513;51.984;5.648;2024-03-22T08:22:11;12.3;77.6
81031;SHT31;70513;51.984;5.648;2024-03-22T08:24:40;12.3;77.8
81031;SHT31;70513;51.984;5.648;2024-03-22T08:27:09;12.3;78.0
81031;SHT31;70513;51.984;5.648;2024-03-22T08:29:37;12.3;78.1
81031;SHT31;70513;51.984;5.648;2024-03-22T08:32:07;12.3;78.2
81031;SHT31;70513;51.984;5.648;2024-03-22T08:34:37;12.3;78.1
81031;SHT31;70513;51.984;5.648;2024-03-22T08:37:07;12.3;78.5
81031;SHT31;70513;51.984;5.648;2024-03-22T08:39:36;12.3;78.5
81031;SHT31;70513;51.984;5.648;2024-03-22T08:42:05;12.4;79.0
81031;SHT31;70513;51.984;5.648;2024-03-22T08:44:36;12.4;79.6
81031;SHT31;70513;51.984;5.648;2024-03-22T08:47:05;12.4;79.9
81031;SHT31;70513;51.984;5.648;2024-03-22T08:49:34;12.3;79.9
81031;SHT31;70513;51.984;5.648;2024-03-22T08:52:05;12.3;80.1
81031;SHT31;70513;51.984;5.648;2024-03-22T08:54:34;12.2;80.3
81031;SHT31;70513;51.984;5.648;2024-03-22T08:57:02;12.2;80.6
81031;SHT31;70513;51.984;5.648;2024-03-22T08:59:31;12.1;80.5
81031;SHT31;70513;51.984;5.648;2024-03-22T09:01:59;12.1;80.8
81031;SHT31;70513;51.984;5.648;2024-03-22T09:04:27;12.1;80.6
81031;SHT31;70513;51.984;5.648;2024-03-22T09:06:56;12.1;80.8
81031;SHT31;70513;51.984;5.648;2024-03-22T09:09:24;12.1;80.9
81031;SHT31;70513;51.984;5.648;2024-03-22T09:11:53;12.1;81.0
81031;SHT31;70513;51.984;5.648;2024-03-22T09:14:21;12.1;80.9
81031;SHT31;70513;51.984;5.648;2024-03-22T09:16:51;12.1;80.4
81031;SHT31;70513;51.984;5.648;2024-03-22T09:19:20;12.2;80.7
81031;SHT31;70513;51.984;5.648;2024-03-22T09:21:49;12.1;80.9
81031;SHT31;70513;51.984;5.648;2024-03-22T09:24:19;12.1;81.2
81031;SHT31;70513;51.984;5.648;2024-03-22T09:26:48;12.1;81.9
81031;SHT31;70513;51.984;5.648;2024-03-22T09:29:16;12.1;82.8
81031;SHT31;70513;51.984;5.648;2024-03-22T09:31:45;12.1;82.2
81031;SHT31;70513;51.984;5.648;2024-03-22T09:34:17;12.1;82.5
81031;SHT31;70513;51.984;5.648;2024-03-22T09:36:46;12.1;82.5
81031;SHT31;70513;51.984;5.648;2024-03-22T09:39:14;12.1;82.2
81031;SHT31;70513;51.984;5.648;2024-03-22T09:41:44;12.1;82.0
81031;SHT31;70513;51.984;5.648;2024-03-22T09:44:14;12.1;81.9
81031;SHT31;70513;51.984;5.648;2024-03-22T09:46:46;12.1;81.4
81031;SHT31;70513;51.984;5.648;2024-03-22T09:49:15;12.1;81.2
81031;SHT31;70513;51.984;5.648;2024-03-22T09:51:45;12.1;81.3
81031;SHT31;70513;51.984;5.648;2024-03-22T09:54:15;12.1;81.3
81031;SHT31;70513;51.984;5.648;2024-03-22T09:56:47;12.1;81.1
81031;SHT31;70513;51.984;5.648;2024-03-22T09:59:16;12.2;81.1
81031;SHT31;70513;51.984;5.648;2024-03-22T10:01:48;12.2;81.0
81031;SHT31;70513;51.984;5.648;2024-03-22T10:04:17;12.2;81.3
81031;SHT31;70513;51.984;5.648;2024-03-22T10:06:47;12.2;82.3
81031;SHT31;70513;51.984;5.648;2024-03-22T10:09:17;12.2;82.6
81031;SHT31;70513;51.984;5.648;2024-03-22T10:11:46;12.2;82.9
81031;SHT31;70513;51.984;5.648;2024-03-22T10:14:15;12.1;83.0
81031;SHT31;70513;51.984;5.648;2024-03-22T10:16:43;12.1;83.6
81031;SHT31;70513;51.984;5.648;2024-03-22T10:19:12;12.0;84.1
81031;SHT31;70513;51.984;5.648;2024-03-22T10:21:40;12.0;84.7
81031;SHT31;70513;51.984;5.648;2024-03-22T10:24:09;12.0;85.1
81031;SHT31;70513;51.984;5.648;2024-03-22T10:26:37;11.9;85.8
81031;SHT31;70513;51.984;5.648;2024-03-22T10:29:07;11.9;85.8
81031;SHT31;70513;51.984;5.648;2024-03-22T10:31:36;11.9;86.3
81031;SHT31;70513;51.984;5.648;2024-03-22T10:34:09;11.9;86.3
81031;SHT31;70513;51.984;5.648;2024-03-22T10:36:40;11.9;86.9
81031;SHT31;70513;51.984;5.648;2024-03-22T10:39:11;11.8;87.1
81031;SHT31;70513;51.984;5.648;2024-03-22T10:41:41;11.8;86.7
81031;SHT31;70513;51.984;5.648;2024-03-22T10:44:10;11.8;86.6
81031;SHT31;70513;51.984;5.648;2024-03-22T10:46:44;11.8;86.8
81031;SHT31;70513;51.984;5.648;2024-03-22T10:49:16;11.8;86.4
81031;SHT31;70513;51.984;5.648;2024-03-22T10:51:48;11.8;86.5
81031;SHT31;70513;51.984;5.648;2024-03-22T10:54:20;11.8;86.6
81031;SHT31;70513;51.984;5.648;2024-03-22T10:56:51;11.8;86.7
81031;SHT31;70513;51.984;5.648;2024-03-22T10:59:22;11.8;86.8
81031;SHT31;70513;51.984;5.648;2024-03-22T11:01:50;11.8;87.3
81031;SHT31;70513;51.984;5.648;2024-03-22T11:04:20;11.8;87.3
81031;SHT31;70513;51.984;5.648;2024-03-22T11:06:50;11.8;87.0
81031;SHT31;70513;51.984;5.648;2024-03-22T11:09:23;11.8;87.0
81031;SHT31;70513;51.984;5.648;2024-03-22T11:11:54;11.8;86.8
81031;SHT31;70513;51.984;5.648;2024-03-22T11:14:25;11.8;87.6
81031;SHT31;70513;51.984;5.648;2024-03-22T11:16:55;11.8;87.7
81031;SHT31;70513;51.984;5.648;2024-03-22T11:19:26;11.8;87.3
81031;SHT31;70513;51.984;5.648;2024-03-22T11:21:56;11.8;87.5
81031;SHT31;70513;51.984;5.648;2024-03-22T11:24:24;11.7;87.5
81031;SHT31;70513;51.984;5.648;2024-03-22T11:26:53;11.7;87.5
81031;SHT31;70513;51.984;5.648;2024-03-22T11:29:23;11.7;87.7
81031;SHT31;70513;51.984;5.648;2024-03-22T11:31:52;11.7;87.9
81031;SHT31;70513;51.984;5.648;2024-03-22T11:34:21;11.7;88.4
81031;SHT31;70513;51.984;5.648;2024-03-22T11:36:50;11.7;88.6
81031;SHT31;70513;51.984;5.648;2024-03-22T11:39:18;11.7;89.0
81031;SHT31;70513;51.984;5.648;2024-03-22T11:41:49;11.7;89.1
81031;SHT31;70513;51.984;5.648;2024-03-22T11:44:18;11.7;89.3
81031;SHT31;70513;51.984;5.648;2024-03-22T11:46:47;11.7;88.9
81031;SHT31;70513;51.984;5.648;2024-03-22T11:49:17;11.7;88.8
81031;SHT31;70513;51.984;5.648;2024-03-22T11:51:51;11.7;88.3
81031;SHT31;70513;51.984;5.648;2024-03-22T11:54:21;11.7;88.6
81031;SHT31;70513;51.984;5.648;2024-03-22T11:56:50;11.7;88.6
81031;SHT31;70513;51.984;5.648;2024-03-22T11:59:21;11.7;88.6
81031;SHT31;70513;51.984;5.648;2024-03-22T12:01:50;11.7;88.4
81031;SHT31;70513;51.984;5.648;2024-03-22T12:04:19;11.7;88.9
81031;SHT31;70513;51.984;5.648;2024-03-22T12:06:47;11.7;89.1
81031;SHT31;70513;51.984;5.648;2024-03-22T12:09:18;11.7;89.4
81031;SHT31;70513;51.984;5.648;2024-03-22T12:11:46;11.8;89.4
81031;SHT31;70513;51.984;5.648;2024-03-22T12:14:14;11.8;89.5
81031;SHT31;70513;51.984;5.648;2024-03-22T12:16:43;11.8;89.5
81031;SHT31;70513;51.984;5.648;2024-03-22T12:19:12;11.8;89.2
81031;SHT31;70513;51.984;5.648;2024-03-22T12:21:40;11.8;88.8
81031;SHT31;70513;51.984;5.648;2024-03-22T12:24:08;11.8;88.7
81031;SHT31;70513;51.984;5.648;2024-03-22T12:26:37;11.8;88.9
81031;SHT31;70513;51.984;5.648;2024-03-22T12:29:05;11.9;89.0
81031;SHT31;70513;51.984;5.648;2024-03-22T12:31:37;11.9;89.0
81031;SHT31;70513;51.984;5.648;2024-03-22T12:34:07;11.9;89.4
81031;SHT31;70513;51.984;5.648;2024-03-22T12:36:36;11.9;89.4
81031;SHT31;70513;51.984;5.648;2024-03-22T12:39:05;11.9;89.3
81031;SHT31;70513;51.984;5.648;2024-03-22T12:41:35;11.9;89.5
81031;SHT31;70513;51.984;5.648;2024-03-22T12:44:04;11.9;89.9
81031;SHT31;70513;51.984;5.648;2024-03-22T12:46:34;12.0;88.7
81031;SHT31;70513;51.984;5.648;2024-03-22T12:49:03;12.0;88.6
81031;SHT31;70513;51.984;5.648;2024-03-22T12:51:31;12.0;88.4
81031;SHT31;70513;51.984;5.648;2024-03-22T12:54:00;12.0;88.4
81031;SHT31;70513;51.984;5.648;2024-03-22T12:56:30;11.9;88.6
81031;SHT31;70513;51.984;5.648;2024-03-22T12:58:59;11.9;88.4
81031;SHT31;70513;51.984;5.648;2024-03-22T13:01:28;11.9;88.5
81031;SHT31;70513;51.984;5.648;2024-03-22T13:03:57;11.9;88.8
81031;SHT31;70513;51.984;5.648;2024-03-22T13:06:27;11.9;88.4
81031;SHT31;70513;51.984;5.648;2024-03-22T13:08:56;11.9;88.7
81031;SHT31;70513;51.984;5.648;2024-03-22T13:11:24;11.9;89.1
81031;SHT31;70513;51.984;5.648;2024-03-22T13:13:53;11.9;88.9
81031;SHT31;70513;51.984;5.648;2024-03-22T13:16:22;11.9;88.3
81031;SHT31;70513;51.984;5.648;2024-03-22T13:18:51;11.9;88.0
81031;SHT31;70513;51.984;5.648;2024-03-22T13:21:20;11.9;87.1
81031;SHT31;70513;51.984;5.648;2024-03-22T13:23:48;12.0;86.5
81031;SHT31;70513;51.984;5.648;2024-03-22T13:26:17;12.0;85.9
81031;SHT31;70513;51.984;5.648;2024-03-22T13:28:45;12.0;86.7
81031;SHT31;70513;51.984;5.648;2024-03-22T13:31:13;12.0;86.2
81031;SHT31;70513;51.984;5.648;2024-03-22T13:33:42;12.0;85.9
81031;SHT31;70513;51.984;5.648;2024-03-22T13:36:12;12.0;86.2
81031;SHT31;70513;51.984;5.648;2024-03-22T13:38:41;12.0;86.2
81031;SHT31;70513;51.984;5.648;2024-03-22T13:41:09;12.0;85.1
81031;SHT31;70513;51.984;5.648;2024-03-22T13:43:37;12.0;85.1
81031;SHT31;70513;51.984;5.648;2024-03-22T13:46:08;12.0;86.0
81031;SHT31;70513;51.984;5.648;2024-03-22T13:48:38;12.0;85.3
81031;SHT31;70513;51.984;5.648;2024-03-22T13:51:07;12.0;85.4
81031;SHT31;70513;51.984;5.648;2024-03-22T13:53:36;12.0;85.5
81031;SHT31;70513;51.984;5.648;2024-03-22T13:56:08;12.0;85.7
81031;SHT31;70513;51.984;5.648;2024-03-22T13:58:36;12.0;85.0
81031;SHT31;70513;51.984;5.648;2024-03-22T14:01:05;11.9;84.5
81031;SHT31;70513;51.984;5.648;2024-03-22T14:03:33;11.9;83.3
81031;SHT31;70513;51.984;5.648;2024-03-22T14:06:02;11.8;83.9
81031;SHT31;70513;51.984;5.648;2024-03-22T14:08:31;11.8;83.9
81031;SHT31;70513;51.984;5.648;2024-03-22T14:10:59;11.7;84.7
81031;SHT31;70513;51.984;5.648;2024-03-22T14:13:27;11.7;84.8
81031;SHT31;70513;51.984;5.648;2024-03-22T14:15:56;11.6;85.0
81031;SHT31;70513;51.984;5.648;2024-03-22T14:18:24;11.6;84.9
81031;SHT31;70513;51.984;5.648;2024-03-22T14:20:53;11.6;85.7
81031;SHT31;70513;51.984;5.648;2024-03-22T14:23:21;11.6;86.5
81031;SHT31;70513;51.984;5.648;2024-03-22T14:25:50;11.6;86.7
81031;SHT31;70513;51.984;5.648;2024-03-22T14:28:18;11.6;86.3
81031;SHT31;70513;51.984;5.648;2024-03-22T14:30:48;11.6;86.4
81031;SHT31;70513;51.984;5.648;2024-03-22T14:33:16;11.7;85.3
81031;SHT31;70513;51.984;5.648;2024-03-22T14:35:44;11.7;85.2
81031;SHT31;70513;51.984;5.648;2024-03-22T14:38:14;11.7;84.8
81031;SHT31;70513;51.984;5.648;2024-03-22T14:40:43;11.8;84.7
81031;SHT31;70513;51.984;5.648;2024-03-22T14:43:12;11.8;84.2
81031;SHT31;70513;51.984;5.648;2024-03-22T14:45:40;11.8;84.1
81031;SHT31;70513;51.984;5.648;2024-03-22T14:48:09;11.8;84.6
81031;SHT31;70513;51.984;5.648;2024-03-22T14:50:37;11.8;83.8
81031;SHT31;70513;51.984;5.648;2024-03-22T14:53:06;11.8;84.3
81031;SHT31;70513;51.984;5.648;2024-03-22T14:55:35;11.8;84.4
81031;SHT31;70513;51.984;5.648;2024-03-22T14:58:06;11.8;84.5
81031;SHT31;70513;51.984;5.648;2024-03-22T15:00:35;11.9;84.3
81031;SHT31;70513;51.984;5.648;2024-03-22T15:03:06;11.9;84.4
81031;SHT31;70513;51.984;5.648;2024-03-22T15:05:34;11.9;84.8
81031;SHT31;70513;51.984;5.648;2024-03-22T15:08:03;11.9;84.4
81031;SHT31;70513;51.984;5.648;2024-03-22T15:10:34;11.9;84.0
81031;SHT31;70513;51.984;5.648;2024-03-22T15:13:03;11.9;84.0
81031;SHT31;70513;51.984;5.648;2024-03-22T15:15:33;11.9;84.2
81031;SHT31;70513;51.984;5.648;2024-03-22T15:18:01;11.9;84.1
81031;SHT31;70513;51.984;5.648;2024-03-22T15:20:32;11.9;83.9
81031;SHT31;70513;51.984;5.648;2024-03-22T15:23:01;11.9;84.0
81031;SHT31;70513;51.984;5.648;2024-03-22T15:25:30;11.9;84.0
81031;SHT31;70513;51.984;5.648;2024-03-22T15:28:01;11.8;84.6
81031;SHT31;70513;51.984;5.648;2024-03-22T15:30:29;11.8;84.2
81031;SHT31;70513;51.984;5.648;2024-03-22T15:33:00;11.8;84.7
81031;SHT31;70513;51.984;5.648;2024-03-22T15:35:29;11.8;85.0
81031;SHT31;70513;51.984;5.648;2024-03-22T15:37:58;11.8;84.8
81031;SHT31;70513;51.984;5.648;2024-03-22T15:40:29;11.8;84.7
81031;SHT31;70513;51.984;5.648;2024-03-22T15:42:58;11.8;84.9
81031;SHT31;70513;51.984;5.648;2024-03-22T15:45:27;11.8;85.3
81031;SHT31;70513;51.984;5.648;2024-03-22T15:47:57;11.8;85.4
81031;SHT31;70513;51.984;5.648;2024-03-22T15:50:25;11.8;85.3
81031;SHT31;70513;51.984;5.648;2024-03-22T15:52:54;11.8;85.2
81031;SHT31;70513;51.984;5.648;2024-03-22T15:55:24;11.8;84.6
81031;SHT31;70513;51.984;5.648;2024-03-22T15:57:54;11.8;85.0
81031;SHT31;70513;51.984;5.648;2024-03-22T16:00:22;11.8;84.8
81031;SHT31;70513;51.984;5.648;2024-03-22T16:02:52;11.8;85.2
81031;SHT31;70513;51.984;5.648;2024-03-22T16:05:22;11.8;85.6
81031;SHT31;70513;51.984;5.648;2024-03-22T16:07:51;11.8;85.5
81031;SHT31;70513;51.984;5.648;2024-03-22T16:10:21;11.8;85.3
81031;SHT31;70513;51.984;5.648;2024-03-22T16:12:50;11.9;85.7